sensor_id;sensor_type;location;lat;lon;timestamp;P1;durP1;ratioP1;P2;durP2;ratioP2
67508;SDS011;54354;44.724;11.284;2023-08-08T00:02:20;3.33;;;1.05;;
67508;SDS011;54354;44.724;11.284;2023-08-08T00:04:45;3.13;;;1.95;;
67508;SDS011;54354;44.724;11.284;2023-08-08T00:07:11;3.08;;;1.10;;
67508;SDS011;54354;44.724;11.284;2023-08-08T00:09:37;1.95;;;0.80;;
67508;SDS011;54354;44.724;11.284;2023-08-08T00:12:03;4.00;;;0.75;;
67508;SDS011;54354;44.724;11.284;2023-08-08T00:14:29;0.75;;;0.63;;
67508;SDS011;54354;44.724;11.284;2023-08-08T00:16:54;2.50;;;0.70;;
67508;SDS011;54354;44.724;11.284;2023-08-08T00:19:20;2.13;;;0.80;;
67508;SDS011;54354;44.724;11.284;2023-08-08T00:21:45;1.10;;;0.82;;
67508;SDS011;54354;44.724;11.284;2023-08-08T00:24:11;3.78;;;0.77;;
67508;SDS011;54354;44.724;11.284;2023-08-08T00:26:36;1.25;;;0.70;;
67508;SDS011;54354;44.724;11.284;2023-08-08T00:29:02;2.67;;;0.77;;
67508;SDS011;54354;44.724;11.284;2023-08-08T00:31:27;1.92;;;1.30;;
67508;SDS011;54354;44.724;11.284;2023-08-08T00:33:53;2.30;;;0.85;;
67508;SDS011;54354;44.724;11.284;2023-08-08T00:36:18;4.57;;;0.70;;
67508;SDS011;54354;44.724;11.284;2023-08-08T00:38:44;2.97;;;1.08;;
67508;SDS011;54354;44.724;11.284;2023-08-08T00:41:09;1.63;;;0.93;;
67508;SDS011;54354;44.724;11.284;2023-08-08T00:43:35;0.90;;;0.70;;
67508;SDS011;54354;44.724;11.284;2023-08-08T00:46:00;1.17;;;0.73;;
67508;SDS011;54354;44.724;11.284;2023-08-08T00:48:26;1.90;;;0.80;;
67508;SDS011;54354;44.724;11.284;2023-08-08T00:50:52;2.83;;;1.20;;
67508;SDS011;54354;44.724;11.284;2023-08-08T00:53:18;3.50;;;1.58;;
67508;SDS011;54354;44.724;11.284;2023-08-08T00:55:45;4.72;;;1.30;;
67508;SDS011;54354;44.724;11.284;2023-08-08T00:58:12;4.53;;;0.90;;
67508;SDS011;54354;44.724;11.284;2023-08-08T01:00:38;2.67;;;0.85;;
67508;SDS011;54354;44.724;11.284;2023-08-08T01:03:03;2.42;;;0.70;;
67508;SDS011;54354;44.724;11.284;2023-08-08T01:05:31;2.63;;;0.70;;
67508;SDS011;54354;44.724;11.284;2023-08-08T01:08:06;1.58;;;0.85;;
67508;SDS011;54354;44.724;11.284;2023-08-08T01:10:39;0.88;;;0.73;;
67508;SDS011;54354;44.724;11.284;2023-08-08T01:13:10;3.10;;;0.90;;
67508;SDS011;54354;44.724;11.284;2023-08-08T01:15:40;1.65;;;0.80;;
67508;SDS011;54354;44.724;11.284;2023-08-08T01:18:06;2.08;;;0.70;;
67508;SDS011;54354;44.724;11.284;2023-08-08T01:20:33;1.35;;;0.80;;
67508;SDS011;54354;44.724;11.284;2023-08-08T01:25:54;2.60;;;0.90;;
67508;SDS011;54354;44.724;11.284;2023-08-08T01:28:22;2.10;;;0.70;;
67508;SDS011;54354;44.724;11.284;2023-08-08T01:30:48;1.65;;;0.90;;
67508;SDS011;54354;44.724;11.284;2023-08-08T01:33:14;0.77;;;0.77;;
67508;SDS011;54354;44.724;11.284;2023-08-08T01:35:41;3.30;;;1.00;;
67508;SDS011;54354;44.724;11.284;2023-08-08T01:38:12;2.75;;;0.95;;
67508;SDS011;54354;44.724;11.284;2023-08-08T01:40:42;1.30;;;1.13;;
67508;SDS011;54354;44.724;11.284;2023-08-08T01:43:09;3.38;;;0.90;;
67508;SDS011;54354;44.724;11.284;2023-08-08T01:45:35;3.83;;;1.45;;
67508;SDS011;54354;44.724;11.284;2023-08-08T01:48:06;1.73;;;1.00;;
67508;SDS011;54354;44.724;11.284;2023-08-08T01:50:35;2.35;;;0.70;;
67508;SDS011;54354;44.724;11.284;2023-08-08T01:53:01;1.52;;;0.77;;
67508;SDS011;54354;44.724;11.284;2023-08-08T01:55:27;4.47;;;0.90;;
67508;SDS011;54354;44.724;11.284;2023-08-08T01:57:53;2.05;;;0.73;;
67508;SDS011;54354;44.724;11.284;2023-08-08T02:00:18;3.10;;;0.70;;
67508;SDS011;54354;44.724;11.284;2023-08-08T02:02:44;4.90;;;0.80;;
67508;SDS011;54354;44.724;11.284;2023-08-08T02:05:10;2.40;;;0.90;;
67508;SDS011;54354;44.724;11.284;2023-08-08T02:07:35;4.07;;;0.75;;
67508;SDS011;54354;44.724;11.284;2023-08-08T02:10:01;1.48;;;1.00;;
67508;SDS011;54354;44.724;11.284;2023-08-08T02:12:27;1.63;;;0.60;;
67508;SDS011;54354;44.724;11.284;2023-08-08T02:14:54;1.05;;;0.65;;
67508;SDS011;54354;44.724;11.284;2023-08-08T02:17:20;3.95;;;0.60;;
67508;SDS011;54354;44.724;11.284;2023-08-08T02:19:46;1.48;;;0.90;;
67508;SDS011;54354;44.724;11.284;2023-08-08T02:22:12;2.78;;;0.80;;
67508;SDS011;54354;44.724;11.284;2023-08-08T02:24:38;2.67;;;0.70;;
67508;SDS011;54354;44.724;11.284;2023-08-08T02:27:03;0.90;;;0.77;;
67508;SDS011;54354;44.724;11.284;2023-08-08T02:29:29;1.52;;;0.95;;
67508;SDS011;54354;44.724;11.284;2023-08-08T02:31:58;1.52;;;0.80;;
67508;SDS011;54354;44.724;11.284;2023-08-08T02:34:25;1.35;;;0.75;;
67508;SDS011;54354;44.724;11.284;2023-08-08T02:36:50;1.67;;;0.70;;
67508;SDS011;54354;44.724;11.284;2023-08-08T02:39:16;1.30;;;0.70;;
67508;SDS011;54354;44.724;11.284;2023-08-08T02:41:41;1.20;;;0.80;;
67508;SDS011;54354;44.724;11.284;2023-08-08T02:44:08;4.93;;;0.85;;
67508;SDS011;54354;44.724;11.284;2023-08-08T02:46:33;1.65;;;0.90;;
67508;SDS011;54354;44.724;11.284;2023-08-08T02:48:59;3.10;;;1.00;;
67508;SDS011;54354;44.724;11.284;2023-08-08T02:51:26;1.30;;;0.80;;
67508;SDS011;54354;44.724;11.284;2023-08-08T02:53:51;2.55;;;0.90;;
67508;SDS011;54354;44.724;11.284;2023-08-08T02:56:17;1.92;;;0.80;;
67508;SDS011;54354;44.724;11.284;2023-08-08T02:58:43;1.73;;;1.15;;
67508;SDS011;54354;44.724;11.284;2023-08-08T03:01:08;2.10;;;0.90;;
67508;SDS011;54354;44.724;11.284;2023-08-08T03:03:35;3.13;;;0.90;;
67508;SDS011;54354;44.724;11.284;2023-08-08T03:06:01;3.53;;;0.80;;
67508;SDS011;54354;44.724;11.284;2023-08-08T03:08:28;3.47;;;0.80;;
67508;SDS011;54354;44.724;11.284;2023-08-08T03:10:55;1.77;;;0.93;;
67508;SDS011;54354;44.724;11.284;2023-08-08T03:13:23;1.40;;;0.90;;
67508;SDS011;54354;44.724;11.284;2023-08-08T03:15:50;1.95;;;0.90;;
67508;SDS011;54354;44.724;11.284;2023-08-08T03:18:16;2.10;;;0.90;;
67508;SDS011;54354;44.724;11.284;2023-08-08T03:20:42;3.58;;;0.80;;
67508;SDS011;54354;44.724;11.284;2023-08-08T03:23:08;2.00;;;0.68;;
67508;SDS011;54354;44.724;11.284;2023-08-08T03:25:35;3.53;;;0.82;;
67508;SDS011;54354;44.724;11.284;2023-08-08T03:28:01;0.80;;;0.80;;
67508;SDS011;54354;44.724;11.284;2023-08-08T03:30:27;2.88;;;0.95;;
67508;SDS011;54354;44.724;11.284;2023-08-08T03:32:53;2.25;;;0.77;;
67508;SDS011;54354;44.724;11.284;2023-08-08T03:35:18;1.48;;;1.27;;
67508;SDS011;54354;44.724;11.284;2023-08-08T03:37:44;1.85;;;0.85;;
67508;SDS011;54354;44.724;11.284;2023-08-08T03:40:10;3.35;;;0.65;;
67508;SDS011;54354;44.724;11.284;2023-08-08T03:42:39;3.20;;;0.75;;
67508;SDS011;54354;44.724;11.284;2023-08-08T03:45:05;5.78;;;0.95;;
67508;SDS011;54354;44.724;11.284;2023-08-08T03:47:31;3.63;;;0.88;;
67508;SDS011;54354;44.724;11.284;2023-08-08T03:49:56;2.50;;;0.90;;
67508;SDS011;54354;44.724;11.284;2023-08-08T03:52:23;1.88;;;0.90;;
67508;SDS011;54354;44.724;11.284;2023-08-08T03:54:50;1.40;;;0.90;;
67508;SDS011;54354;44.724;11.284;2023-08-08T03:57:16;1.67;;;0.90;;
67508;SDS011;54354;44.724;11.284;2023-08-08T03:59:41;2.95;;;0.90;;
67508;SDS011;54354;44.724;11.284;2023-08-08T04:02:07;7.18;;;1.00;;
67508;SDS011;54354;44.724;11.284;2023-08-08T04:04:32;1.35;;;0.90;;
67508;SDS011;54354;44.724;11.284;2023-08-08T04:06:58;3.20;;;0.80;;
67508;SDS011;54354;44.724;11.284;2023-08-08T04:09:23;2.40;;;0.90;;
67508;SDS011;54354;44.724;11.284;2023-08-08T04:11:49;4.22;;;1.02;;
67508;SDS011;54354;44.724;11.284;2023-08-08T04:14:16;3.42;;;0.80;;
67508;SDS011;54354;44.724;11.284;2023-08-08T04:16:41;2.58;;;0.75;;
67508;SDS011;54354;44.724;11.284;2023-08-08T04:19:10;4.07;;;0.65;;
67508;SDS011;54354;44.724;11.284;2023-08-08T04:21:35;1.08;;;0.60;;
67508;SDS011;54354;44.724;11.284;2023-08-08T04:24:01;1.35;;;0.73;;
67508;SDS011;54354;44.724;11.284;2023-08-08T04:26:27;2.70;;;0.85;;
67508;SDS011;54354;44.724;11.284;2023-08-08T04:28:53;2.63;;;0.80;;
67508;SDS011;54354;44.724;11.284;2023-08-08T04:31:18;1.90;;;0.80;;
67508;SDS011;54354;44.724;11.284;2023-08-08T04:33:44;1.63;;;0.95;;
67508;SDS011;54354;44.724;11.284;2023-08-08T04:36:10;1.05;;;0.70;;
67508;SDS011;54354;44.724;11.284;2023-08-08T04:38:35;2.78;;;0.80;;
67508;SDS011;54354;44.724;11.284;2023-08-08T04:41:01;3.35;;;0.90;;
67508;SDS011;54354;44.724;11.284;2023-08-08T04:43:27;2.50;;;0.80;;
67508;SDS011;54354;44.724;11.284;2023-08-08T04:45:53;2.20;;;1.25;;
67508;SDS011;54354;44.724;11.284;2023-08-08T04:48:19;4.85;;;1.65;;
67508;SDS011;54354;44.724;11.284;2023-08-08T04:50:47;2.58;;;1.20;;
67508;SDS011;54354;44.724;11.284;2023-08-08T04:53:13;1.80;;;0.80;;
67508;SDS011;54354;44.724;11.284;2023-08-08T04:55:38;4.88;;;1.10;;
67508;SDS011;54354;44.724;11.284;2023-08-08T04:58:04;1.88;;;0.90;;
67508;SDS011;54354;44.724;11.284;2023-08-08T05:00:30;3.83;;;1.00;;
67508;SDS011;54354;44.724;11.284;2023-08-08T05:02:55;5.38;;;1.00;;
67508;SDS011;54354;44.724;11.284;2023-08-08T05:05:21;2.03;;;0.82;;
67508;SDS011;54354;44.724;11.284;2023-08-08T05:07:46;1.63;;;1.00;;
67508;SDS011;54354;44.724;11.284;2023-08-08T05:10:12;5.28;;;0.80;;
67508;SDS011;54354;44.724;11.284;2023-08-08T05:12:38;5.95;;;0.90;;
67508;SDS011;54354;44.724;11.284;2023-08-08T05:15:04;3.97;;;1.02;;
67508;SDS011;54354;44.724;11.284;2023-08-08T05:17:30;3.10;;;0.90;;
67508;SDS011;54354;44.724;11.284;2023-08-08T05:19:59;8.48;;;0.90;;
67508;SDS011;54354;44.724;11.284;2023-08-08T05:22:24;1.25;;;0.75;;
67508;SDS011;54354;44.724;11.284;2023-08-08T05:24:50;5.43;;;1.05;;
67508;SDS011;54354;44.724;11.284;2023-08-08T05:27:16;2.92;;;0.90;;
67508;SDS011;54354;44.724;11.284;2023-08-08T05:29:41;2.50;;;0.90;;
67508;SDS011;54354;44.724;11.284;2023-08-08T05:32:07;5.60;;;0.93;;
67508;SDS011;54354;44.724;11.284;2023-08-08T05:34:33;2.65;;;0.90;;
67508;SDS011;54354;44.724;11.284;2023-08-08T05:36:59;3.15;;;0.80;;
67508;SDS011;54354;44.724;11.284;2023-08-08T05:39:25;3.53;;;1.00;;
67508;SDS011;54354;44.724;11.284;2023-08-08T05:41:50;4.53;;;0.90;;
67508;SDS011;54354;44.724;11.284;2023-08-08T05:44:16;2.35;;;1.00;;
67508;SDS011;54354;44.724;11.284;2023-08-08T05:46:42;3.80;;;0.80;;
67508;SDS011;54354;44.724;11.284;2023-08-08T05:49:07;3.08;;;1.00;;
67508;SDS011;54354;44.724;11.284;2023-08-08T05:51:33;3.60;;;1.20;;
67508;SDS011;54354;44.724;11.284;2023-08-08T05:53:59;4.18;;;0.90;;
67508;SDS011;54354;44.724;11.284;2023-08-08T05:56:27;3.00;;;0.85;;
67508;SDS011;54354;44.724;11.284;2023-08-08T05:58:59;3.40;;;1.10;;
67508;SDS011;54354;44.724;11.284;2023-08-08T06:01:25;3.78;;;0.98;;
67508;SDS011;54354;44.724;11.284;2023-08-08T06:03:50;1.35;;;1.10;;
67508;SDS011;54354;44.724;11.284;2023-08-08T06:06:18;1.63;;;1.00;;
67508;SDS011;54354;44.724;11.284;2023-08-08T06:08:44;2.72;;;0.88;;
67508;SDS011;54354;44.724;11.284;2023-08-08T06:11:10;5.40;;;1.00;;
67508;SDS011;54354;44.724;11.284;2023-08-08T06:13:36;3.05;;;1.23;;
67508;SDS011;54354;44.724;11.284;2023-08-08T06:16:01;1.80;;;1.00;;
67508;SDS011;54354;44.724;11.284;2023-08-08T06:18:31;3.75;;;1.10;;
67508;SDS011;54354;44.724;11.284;2023-08-08T06:20:59;4.32;;;0.85;;
67508;SDS011;54354;44.724;11.284;2023-08-08T06:23:26;1.65;;;1.00;;
67508;SDS011;54354;44.724;11.284;2023-08-08T06:25:51;2.15;;;0.98;;
67508;SDS011;54354;44.724;11.284;2023-08-08T06:30:47;3.08;;;1.00;;
67508;SDS011;54354;44.724;11.284;2023-08-08T06:33:12;4.40;;;1.10;;
67508;SDS011;54354;44.724;11.284;2023-08-08T06:35:38;4.82;;;1.02;;
67508;SDS011;54354;44.724;11.284;2023-08-08T06:38:04;3.97;;;1.10;;
67508;SDS011;54354;44.724;11.284;2023-08-08T06:40:29;3.50;;;1.30;;
67508;SDS011;54354;44.724;11.284;2023-08-08T06:42:55;2.65;;;1.20;;
67508;SDS011;54354;44.724;11.284;2023-08-08T06:45:20;5.55;;;1.40;;
67508;SDS011;54354;44.724;11.284;2023-08-08T06:47:47;1.20;;;1.10;;
67508;SDS011;54354;44.724;11.284;2023-08-08T06:50:13;2.33;;;1.27;;
67508;SDS011;54354;44.724;11.284;2023-08-08T06:52:39;3.20;;;1.40;;
67508;SDS011;54354;44.724;11.284;2023-08-08T06:55:05;2.78;;;1.50;;
67508;SDS011;54354;44.724;11.284;2023-08-08T06:57:32;4.00;;;1.75;;
67508;SDS011;54354;44.724;11.284;2023-08-08T06:59:59;2.63;;;2.10;;
67508;SDS011;54354;44.724;11.284;2023-08-08T07:02:24;4.03;;;1.50;;
67508;SDS011;54354;44.724;11.284;2023-08-08T07:04:50;3.38;;;1.77;;
67508;SDS011;54354;44.724;11.284;2023-08-08T07:07:15;4.68;;;1.42;;
67508;SDS011;54354;44.724;11.284;2023-08-08T07:09:41;7.32;;;1.80;;
67508;SDS011;54354;44.724;11.284;2023-08-08T07:12:07;3.38;;;2.20;;
67508;SDS011;54354;44.724;11.284;2023-08-08T07:14:33;3.05;;;2.20;;
67508;SDS011;54354;44.724;11.284;2023-08-08T07:16:58;5.30;;;2.45;;
67508;SDS011;54354;44.724;11.284;2023-08-08T07:19:24;4.63;;;2.88;;
67508;SDS011;54354;44.724;11.284;2023-08-08T07:21:50;5.47;;;2.65;;
67508;SDS011;54354;44.724;11.284;2023-08-08T07:24:16;4.10;;;2.47;;
67508;SDS011;54354;44.724;11.284;2023-08-08T07:26:41;3.33;;;2.50;;
67508;SDS011;54354;44.724;11.284;2023-08-08T07:29:07;2.85;;;2.47;;
67508;SDS011;54354;44.724;11.284;2023-08-08T07:31:33;2.70;;;2.35;;
67508;SDS011;54354;44.724;11.284;2023-08-08T07:33:59;4.75;;;3.22;;
67508;SDS011;54354;44.724;11.284;2023-08-08T07:36:25;5.38;;;3.22;;
67508;SDS011;54354;44.724;11.284;2023-08-08T07:38:50;6.40;;;3.83;;
67508;SDS011;54354;44.724;11.284;2023-08-08T07:41:16;3.55;;;3.25;;
67508;SDS011;54354;44.724;11.284;2023-08-08T07:43:43;3.45;;;3.17;;
67508;SDS011;54354;44.724;11.284;2023-08-08T07:46:08;3.80;;;3.40;;
67508;SDS011;54354;44.724;11.284;2023-08-08T07:48:34;5.03;;;3.50;;
67508;SDS011;54354;44.724;11.284;2023-08-08T07:51:00;5.78;;;3.40;;
67508;SDS011;54354;44.724;11.284;2023-08-08T07:53:26;8.60;;;3.78;;
67508;SDS011;54354;44.724;11.284;2023-08-08T07:55:51;3.97;;;3.53;;
67508;SDS011;54354;44.724;11.284;2023-08-08T07:58:17;5.28;;;3.70;;
67508;SDS011;54354;44.724;11.284;2023-08-08T08:00:42;5.78;;;5.15;;
67508;SDS011;54354;44.724;11.284;2023-08-08T08:03:09;5.15;;;4.63;;
67508;SDS011;54354;44.724;11.284;2023-08-08T08:05:35;7.25;;;4.57;;
67508;SDS011;54354;44.724;11.284;2023-08-08T08:08:01;5.40;;;5.00;;
67508;SDS011;54354;44.724;11.284;2023-08-08T08:10:27;5.75;;;4.55;;
67508;SDS011;54354;44.724;11.284;2023-08-08T08:12:52;6.55;;;5.10;;
67508;SDS011;54354;44.724;11.284;2023-08-08T08:15:23;8.02;;;5.03;;
67508;SDS011;54354;44.724;11.284;2023-08-08T08:17:49;7.53;;;5.22;;
67508;SDS011;54354;44.724;11.284;2023-08-08T08:20:15;6.78;;;5.30;;
67508;SDS011;54354;44.724;11.284;2023-08-08T08:22:41;4.93;;;4.53;;
67508;SDS011;54354;44.724;11.284;2023-08-08T08:25:06;6.18;;;4.47;;
67508;SDS011;54354;44.724;11.284;2023-08-08T08:27:35;5.13;;;4.68;;
67508;SDS011;54354;44.724;11.284;2023-08-08T08:30:03;7.03;;;4.85;;
67508;SDS011;54354;44.724;11.284;2023-08-08T08:32:36;5.35;;;4.95;;
67508;SDS011;54354;44.724;11.284;2023-08-08T08:35:04;5.75;;;4.72;;
67508;SDS011;54354;44.724;11.284;2023-08-08T08:37:32;5.27;;;4.73;;
67508;SDS011;54354;44.724;11.284;2023-08-08T08:39:59;5.55;;;4.88;;
67508;SDS011;54354;44.724;11.284;2023-08-08T08:42:25;6.50;;;5.32;;
67508;SDS011;54354;44.724;11.284;2023-08-08T08:44:51;9.07;;;4.60;;
67508;SDS011;54354;44.724;11.284;2023-08-08T08:47:22;4.22;;;3.83;;
67508;SDS011;54354;44.724;11.284;2023-08-08T08:49:49;6.15;;;4.90;;
67508;SDS011;54354;44.724;11.284;2023-08-08T08:52:16;6.97;;;5.07;;
67508;SDS011;54354;44.724;11.284;2023-08-08T08:54:42;6.55;;;5.15;;
67508;SDS011;54354;44.724;11.284;2023-08-08T08:57:08;7.18;;;4.75;;
67508;SDS011;54354;44.724;11.284;2023-08-08T08:59:35;6.63;;;4.85;;
67508;SDS011;54354;44.724;11.284;2023-08-08T09:08:35;6.65;;;5.28;;
67508;SDS011;54354;44.724;11.284;2023-08-08T09:11:00;7.35;;;6.13;;
67508;SDS011;54354;44.724;11.284;2023-08-08T09:13:26;6.00;;;5.50;;
67508;SDS011;54354;44.724;11.284;2023-08-08T09:15:52;8.55;;;6.07;;
67508;SDS011;54354;44.724;11.284;2023-08-08T09:18:18;9.75;;;6.63;;
67508;SDS011;54354;44.724;11.284;2023-08-08T09:20:47;8.63;;;6.00;;
67508;SDS011;54354;44.724;11.284;2023-08-08T09:23:14;6.00;;;5.43;;
67508;SDS011;54354;44.724;11.284;2023-08-08T09:25:39;7.88;;;5.07;;
67508;SDS011;54354;44.724;11.284;2023-08-08T09:28:05;9.48;;;6.05;;
67508;SDS011;54354;44.724;11.284;2023-08-08T09:30:30;7.38;;;5.75;;
67508;SDS011;54354;44.724;11.284;2023-08-08T09:33:02;9.18;;;7.15;;
67508;SDS011;54354;44.724;11.284;2023-08-08T09:35:28;8.13;;;5.13;;
67508;SDS011;54354;44.724;11.284;2023-08-08T09:37:54;6.50;;;5.13;;
67508;SDS011;54354;44.724;11.284;2023-08-08T09:40:20;7.35;;;5.75;;
67508;SDS011;54354;44.724;11.284;2023-08-08T09:42:47;8.60;;;5.55;;
67508;SDS011;54354;44.724;11.284;2023-08-08T09:45:14;6.57;;;5.57;;
67508;SDS011;54354;44.724;11.284;2023-08-08T09:47:39;8.88;;;5.80;;
67508;SDS011;54354;44.724;11.284;2023-08-08T09:50:05;6.80;;;5.07;;
67508;SDS011;54354;44.724;11.284;2023-08-08T09:52:33;9.60;;;5.47;;
67508;SDS011;54354;44.724;11.284;2023-08-08T09:54:59;8.65;;;5.50;;
67508;SDS011;54354;44.724;11.284;2023-08-08T09:57:25;8.07;;;5.10;;
67508;SDS011;54354;44.724;11.284;2023-08-08T09:59:51;4.78;;;4.38;;
67508;SDS011;54354;44.724;11.284;2023-08-08T10:02:17;9.40;;;4.95;;
67508;SDS011;54354;44.724;11.284;2023-08-08T10:04:44;6.07;;;4.97;;
67508;SDS011;54354;44.724;11.284;2023-08-08T10:07:11;4.70;;;4.10;;
67508;SDS011;54354;44.724;11.284;2023-08-08T10:09:36;5.70;;;4.72;;
67508;SDS011;54354;44.724;11.284;2023-08-08T10:12:03;6.03;;;2.67;;
67508;SDS011;54354;44.724;11.284;2023-08-08T10:14:34;7.65;;;5.22;;
67508;SDS011;54354;44.724;11.284;2023-08-08T10:17:05;4.88;;;4.28;;
67508;SDS011;54354;44.724;11.284;2023-08-08T10:19:31;6.93;;;4.20;;
67508;SDS011;54354;44.724;11.284;2023-08-08T10:21:59;5.20;;;2.58;;
67508;SDS011;54354;44.724;11.284;2023-08-08T10:24:35;5.63;;;4.28;;
67508;SDS011;54354;44.724;11.284;2023-08-08T10:27:01;2.20;;;1.80;;
67508;SDS011;54354;44.724;11.284;2023-08-08T10:29:30;3.20;;;2.38;;
67508;SDS011;54354;44.724;11.284;2023-08-08T10:31:58;2.13;;;1.00;;
67508;SDS011;54354;44.724;11.284;2023-08-08T10:34:41;1.90;;;1.73;;
67508;SDS011;54354;44.724;11.284;2023-08-08T10:37:11;2.58;;;2.38;;
67508;SDS011;54354;44.724;11.284;2023-08-08T10:42:43;3.25;;;2.50;;
67508;SDS011;54354;44.724;11.284;2023-08-08T10:45:10;3.42;;;2.00;;
67508;SDS011;54354;44.724;11.284;2023-08-08T10:47:40;3.45;;;1.30;;
67508;SDS011;54354;44.724;11.284;2023-08-08T10:50:10;2.45;;;2.25;;
67508;SDS011;54354;44.724;11.284;2023-08-08T10:52:38;3.58;;;1.08;;
67508;SDS011;54354;44.724;11.284;2023-08-08T10:55:23;5.20;;;1.80;;
67508;SDS011;54354;44.724;11.284;2023-08-08T10:58:03;6.30;;;1.83;;
67508;SDS011;54354;44.724;11.284;2023-08-08T11:00:31;3.45;;;1.40;;
67508;SDS011;54354;44.724;11.284;2023-08-08T11:02:59;4.70;;;1.70;;
67508;SDS011;54354;44.724;11.284;2023-08-08T11:05:28;2.78;;;1.33;;
67508;SDS011;54354;44.724;11.284;2023-08-08T11:07:54;1.00;;;0.90;;
67508;SDS011;54354;44.724;11.284;2023-08-08T11:10:21;1.55;;;1.25;;
67508;SDS011;54354;44.724;11.284;2023-08-08T11:12:59;1.65;;;1.10;;
67508;SDS011;54354;44.724;11.284;2023-08-08T11:15:28;2.45;;;1.50;;
67508;SDS011;54354;44.724;11.284;2023-08-08T11:17:54;2.50;;;0.98;;
67508;SDS011;54354;44.724;11.284;2023-08-08T11:20:24;1.35;;;0.90;;
67508;SDS011;54354;44.724;11.284;2023-08-08T11:22:54;1.20;;;1.10;;
67508;SDS011;54354;44.724;11.284;2023-08-08T11:25:21;1.65;;;1.30;;
67508;SDS011;54354;44.724;11.284;2023-08-08T11:27:53;1.17;;;0.90;;
67508;SDS011;54354;44.724;11.284;2023-08-08T11:30:19;4.47;;;1.83;;
67508;SDS011;54354;44.724;11.284;2023-08-08T11:32:47;3.08;;;1.63;;
67508;SDS011;54354;44.724;11.284;2023-08-08T11:35:17;2.47;;;1.52;;
67508;SDS011;54354;44.724;11.284;2023-08-08T11:37:46;3.38;;;1.00;;
67508;SDS011;54354;44.724;11.284;2023-08-08T11:40:14;2.47;;;1.20;;
67508;SDS011;54354;44.724;11.284;2023-08-08T11:42:41;3.00;;;1.05;;
67508;SDS011;54354;44.724;11.284;2023-08-08T11:45:09;2.13;;;0.90;;
67508;SDS011;54354;44.724;11.284;2023-08-08T11:47:35;4.53;;;1.23;;
67508;SDS011;54354;44.724;11.284;2023-08-08T11:50:03;3.40;;;1.10;;
67508;SDS011;54354;44.724;11.284;2023-08-08T11:52:30;2.17;;;1.10;;
67508;SDS011;54354;44.724;11.284;2023-08-08T11:54:55;1.77;;;0.70;;
67508;SDS011;54354;44.724;11.284;2023-08-08T11:57:23;1.35;;;0.82;;
67508;SDS011;54354;44.724;11.284;2023-08-08T11:59:49;2.58;;;0.88;;
67508;SDS011;54354;44.724;11.284;2023-08-08T12:02:14;2.80;;;1.20;;
67508;SDS011;54354;44.724;11.284;2023-08-08T12:04:44;2.08;;;1.13;;
67508;SDS011;54354;44.724;11.284;2023-08-08T12:07:11;3.05;;;0.90;;
67508;SDS011;54354;44.724;11.284;2023-08-08T12:09:37;0.82;;;0.80;;
67508;SDS011;54354;44.724;11.284;2023-08-08T12:12:02;3.13;;;1.10;;
67508;SDS011;54354;44.724;11.284;2023-08-08T12:14:29;1.00;;;0.90;;
67508;SDS011;54354;44.724;11.284;2023-08-08T12:16:55;3.83;;;1.00;;
67508;SDS011;54354;44.724;11.284;2023-08-08T12:19:24;1.00;;;0.63;;
67508;SDS011;54354;44.724;11.284;2023-08-08T12:21:53;1.63;;;0.60;;
67508;SDS011;54354;44.724;11.284;2023-08-08T12:24:18;1.77;;;0.80;;
67508;SDS011;54354;44.724;11.284;2023-08-08T12:26:44;2.22;;;0.90;;
67508;SDS011;54354;44.724;11.284;2023-08-08T12:29:10;3.75;;;0.60;;
67508;SDS011;54354;44.724;11.284;2023-08-08T12:31:35;4.90;;;0.88;;
67508;SDS011;54354;44.724;11.284;2023-08-08T12:34:01;3.28;;;0.80;;
67508;SDS011;54354;44.724;11.284;2023-08-08T12:36:26;2.50;;;0.90;;
67508;SDS011;54354;44.724;11.284;2023-08-08T12:38:52;0.95;;;0.70;;
67508;SDS011;54354;44.724;11.284;2023-08-08T12:41:17;4.93;;;0.80;;
67508;SDS011;54354;44.724;11.284;2023-08-08T12:43:43;2.20;;;0.60;;
67508;SDS011;54354;44.724;11.284;2023-08-08T12:46:08;2.47;;;0.75;;
67508;SDS011;54354;44.724;11.284;2023-08-08T12:48:34;1.48;;;0.80;;
67508;SDS011;54354;44.724;11.284;2023-08-08T12:50:59;3.78;;;0.93;;
67508;SDS011;54354;44.724;11.284;2023-08-08T12:53:25;3.15;;;0.80;;
67508;SDS011;54354;44.724;11.284;2023-08-08T12:55:51;2.13;;;0.85;;
67508;SDS011;54354;44.724;11.284;2023-08-08T12:58:17;2.70;;;0.90;;
67508;SDS011;54354;44.724;11.284;2023-08-08T13:00:42;2.10;;;0.70;;
67508;SDS011;54354;44.724;11.284;2023-08-08T13:03:08;1.77;;;0.75;;
67508;SDS011;54354;44.724;11.284;2023-08-08T13:05:35;1.08;;;0.98;;
67508;SDS011;54354;44.724;11.284;2023-08-08T13:08:00;2.92;;;0.65;;
67508;SDS011;54354;44.724;11.284;2023-08-08T13:10:26;1.48;;;0.70;;
67508;SDS011;54354;44.724;11.284;2023-08-08T13:12:52;3.28;;;0.60;;
67508;SDS011;54354;44.724;11.284;2023-08-08T13:15:17;0.80;;;0.70;;
67508;SDS011;54354;44.724;11.284;2023-08-08T13:17:43;1.92;;;0.70;;
67508;SDS011;54354;44.724;11.284;2023-08-08T13:20:09;1.00;;;0.60;;
67508;SDS011;54354;44.724;11.284;2023-08-08T13:22:35;3.15;;;1.05;;
67508;SDS011;54354;44.724;11.284;2023-08-08T13:25:00;1.13;;;0.80;;
67508;SDS011;54354;44.724;11.284;2023-08-08T13:27:26;1.15;;;0.70;;
67508;SDS011;54354;44.724;11.284;2023-08-08T13:29:51;0.80;;;0.70;;
67508;SDS011;54354;44.724;11.284;2023-08-08T13:32:17;0.82;;;0.60;;
67508;SDS011;54354;44.724;11.284;2023-08-08T13:34:43;2.88;;;0.73;;
67508;SDS011;54354;44.724;11.284;2023-08-08T13:37:08;3.15;;;0.80;;
67508;SDS011;54354;44.724;11.284;2023-08-08T13:39:34;1.48;;;0.63;;
67508;SDS011;54354;44.724;11.284;2023-08-08T13:41:59;2.15;;;0.77;;
67508;SDS011;54354;44.724;11.284;2023-08-08T13:44:25;2.75;;;0.77;;
67508;SDS011;54354;44.724;11.284;2023-08-08T13:46:50;0.68;;;0.63;;
67508;SDS011;54354;44.724;11.284;2023-08-08T13:49:16;0.70;;;0.60;;
67508;SDS011;54354;44.724;11.284;2023-08-08T13:51:42;0.80;;;0.80;;
67508;SDS011;54354;44.724;11.284;2023-08-08T13:54:07;1.35;;;0.70;;
67508;SDS011;54354;44.724;11.284;2023-08-08T13:56:33;0.65;;;0.65;;
67508;SDS011;54354;44.724;11.284;2023-08-08T13:58:59;3.05;;;0.68;;
67508;SDS011;54354;44.724;11.284;2023-08-08T14:01:24;2.78;;;0.70;;
67508;SDS011;54354;44.724;11.284;2023-08-08T14:03:49;2.38;;;0.60;;
67508;SDS011;54354;44.724;11.284;2023-08-08T14:06:15;1.20;;;0.57;;
67508;SDS011;54354;44.724;11.284;2023-08-08T14:08:40;0.68;;;0.60;;
67508;SDS011;54354;44.724;11.284;2023-08-08T14:11:06;2.05;;;0.82;;
67508;SDS011;54354;44.724;11.284;2023-08-08T14:13:31;0.60;;;0.60;;
67508;SDS011;54354;44.724;11.284;2023-08-08T14:15:58;0.60;;;0.60;;
67508;SDS011;54354;44.724;11.284;2023-08-08T14:18:23;0.63;;;0.63;;
67508;SDS011;54354;44.724;11.284;2023-08-08T14:20:49;3.97;;;0.70;;
67508;SDS011;54354;44.724;11.284;2023-08-08T14:23:14;1.02;;;0.80;;
67508;SDS011;54354;44.724;11.284;2023-08-08T14:25:40;2.20;;;0.70;;
67508;SDS011;54354;44.724;11.284;2023-08-08T14:28:06;3.28;;;0.77;;
67508;SDS011;54354;44.724;11.284;2023-08-08T14:30:32;1.25;;;0.70;;
67508;SDS011;54354;44.724;11.284;2023-08-08T14:32:57;1.77;;;0.90;;
67508;SDS011;54354;44.724;11.284;2023-08-08T14:35:23;2.28;;;0.80;;
67508;SDS011;54354;44.724;11.284;2023-08-08T14:37:49;2.78;;;0.75;;
67508;SDS011;54354;44.724;11.284;2023-08-08T14:40:14;2.13;;;0.70;;
67508;SDS011;54354;44.724;11.284;2023-08-08T14:42:40;0.90;;;0.73;;
67508;SDS011;54354;44.724;11.284;2023-08-08T14:45:06;0.95;;;0.60;;